sensor_id;sensor_type;location;lat;lon;timestamp;temperature;humidity
1461;DHT22;724;49.910;12.530;2023-07-20T00:01:29;15.30;1.00
1461;DHT22;724;49.910;12.530;2023-07-20T00:03:56;15.30;1.00
1461;DHT22;724;49.910;12.530;2023-07-20T00:06:23;15.20;1.00
1461;DHT22;724;49.910;12.530;2023-07-20T00:08:54;15.20;1.00
1461;DHT22;724;49.910;12.530;2023-07-20T00:11:21;15.10;1.00
1461;DHT22;724;49.910;12.530;2023-07-20T00:13:48;15.20;1.00
1461;DHT22;724;49.910;12.530;2023-07-20T00:16:15;15.10;1.00
1461;DHT22;724;49.910;12.530;2023-07-20T00:18:42;15.10;1.00
1461;DHT22;724;49.910;12.530;2023-07-20T00:21:09;15.10;1.00
1461;DHT22;724;49.910;12.530;2023-07-20T00:23:35;15.10;1.00
1461;DHT22;724;49.910;12.530;2023-07-20T00:26:03;15.00;1.00
1461;DHT22;724;49.910;12.530;2023-07-20T00:28:30;15.10;1.00
1461;DHT22;724;49.910;12.530;2023-07-20T00:30:59;15.10;1.00
1461;DHT22;724;49.910;12.530;2023-07-20T00:33:26;15.10;1.00
1461;DHT22;724;49.910;12.530;2023-07-20T00:35:52;15.00;1.00
1461;DHT22;724;49.910;12.530;2023-07-20T00:38:19;15.00;1.00
1461;DHT22;724;49.910;12.530;2023-07-20T00:40:46;14.90;1.00
1461;DHT22;724;49.910;12.530;2023-07-20T00:43:16;14.90;1.00
1461;DHT22;724;49.910;12.530;2023-07-20T00:45:43;14.90;1.00
1461;DHT22;724;49.910;12.530;2023-07-20T00:48:11;14.80;1.00
1461;DHT22;724;49.910;12.530;2023-07-20T00:50:39;14.90;1.00
1461;DHT22;724;49.910;12.530;2023-07-20T00:53:07;14.80;1.00
1461;DHT22;724;49.910;12.530;2023-07-20T00:55:34;14.80;1.00
1461;DHT22;724;49.910;12.530;2023-07-20T00:58:01;14.70;1.00
1461;DHT22;724;49.910;12.530;2023-07-20T01:00:29;14.60;65.90
1461;DHT22;724;49.910;12.530;2023-07-20T01:02:56;14.60;99.90
1461;DHT22;724;49.910;12.530;2023-07-20T01:05:27;14.60;99.90
1461;DHT22;724;49.910;12.530;2023-07-20T01:08:03;14.60;75.00
1461;DHT22;724;49.910;12.530;2023-07-20T01:10:38;14.60;99.90
1461;DHT22;724;49.910;12.530;2023-07-20T01:13:07;14.50;99.90
1461;DHT22;724;49.910;12.530;2023-07-20T01:15:36;14.50;99.90
1461;DHT22;724;49.910;12.530;2023-07-20T01:18:03;14.50;99.90
1461;DHT22;724;49.910;12.530;2023-07-20T01:20:32;14.40;99.90
1461;DHT22;724;49.910;12.530;2023-07-20T01:23:25;14.50;99.90
1461;DHT22;724;49.910;12.530;2023-07-20T01:26:07;14.40;99.90
1461;DHT22;724;49.910;12.530;2023-07-20T01:28:50;14.50;99.90
1461;DHT22;724;49.910;12.530;2023-07-20T01:31:25;14.60;99.90
1461;DHT22;724;49.910;12.530;2023-07-20T01:33:55;14.50;99.90
1461;DHT22;724;49.910;12.530;2023-07-20T01:36:24;14.50;99.90
1461;DHT22;724;49.910;12.530;2023-07-20T01:38:52;14.50;99.90
1461;DHT22;724;49.910;12.530;2023-07-20T01:41:19;14.50;99.90
1461;DHT22;724;49.910;12.530;2023-07-20T01:43:46;14.50;99.90
1461;DHT22;724;49.910;12.530;2023-07-20T01:46:13;14.50;99.90
1461;DHT22;724;49.910;12.530;2023-07-20T01:48:41;14.50;99.90
1461;DHT22;724;49.910;12.530;2023-07-20T01:51:08;14.40;99.90
1461;DHT22;724;49.910;12.530;2023-07-20T01:53:35;14.40;99.90
1461;DHT22;724;49.910;12.530;2023-07-20T01:56:02;14.40;99.90
1461;DHT22;724;49.910;12.530;2023-07-20T01:58:29;14.30;99.90
1461;DHT22;724;49.910;12.530;2023-07-20T02:00:56;14.20;99.90
1461;DHT22;724;49.910;12.530;2023-07-20T02:03:22;14.10;1.00
1461;DHT22;724;49.910;12.530;2023-07-20T02:05:53;14.10;1.00
1461;DHT22;724;49.910;12.530;2023-07-20T02:08:20;14.20;1.00
1461;DHT22;724;49.910;12.530;2023-07-20T02:10:47;14.30;1.00
1461;DHT22;724;49.910;12.530;2023-07-20T02:13:14;14.40;1.00
1461;DHT22;724;49.910;12.530;2023-07-20T02:15:41;14.30;99.90
1461;DHT22;724;49.910;12.530;2023-07-20T02:18:08;14.40;99.90
1461;DHT22;724;49.910;12.530;2023-07-20T02:20:35;14.30;99.90
1461;DHT22;724;49.910;12.530;2023-07-20T02:23:03;14.20;1.00
1461;DHT22;724;49.910;12.530;2023-07-20T02:25:30;14.10;1.00
1461;DHT22;724;49.910;12.530;2023-07-20T02:27:57;14.00;1.00
1461;DHT22;724;49.910;12.530;2023-07-20T02:30:24;13.90;1.00
1461;DHT22;724;49.910;12.530;2023-07-20T02:32:51;14.00;1.00
1461;DHT22;724;49.910;12.530;2023-07-20T02:35:17;14.00;1.00
1461;DHT22;724;49.910;12.530;2023-07-20T02:37:44;14.00;1.00
1461;DHT22;724;49.910;12.530;2023-07-20T02:40:13;14.10;1.00
1461;DHT22;724;49.910;12.530;2023-07-20T02:42:39;14.20;1.00
1461;DHT22;724;49.910;12.530;2023-07-20T02:45:07;14.20;1.00
1461;DHT22;724;49.910;12.530;2023-07-20T02:47:34;14.20;1.00
1461;DHT22;724;49.910;12.530;2023-07-20T02:50:01;14.10;1.00
1461;DHT22;724;49.910;12.530;2023-07-20T02:52:27;14.10;1.00
1461;DHT22;724;49.910;12.530;2023-07-20T02:54:55;14.10;1.00
1461;DHT22;724;49.910;12.530;2023-07-20T02:57:23;14.20;1.00
1461;DHT22;724;49.910;12.530;2023-07-20T02:59:50;14.10;1.00
1461;DHT22;724;49.910;12.530;2023-07-20T03:02:16;14.20;1.00
1461;DHT22;724;49.910;12.530;2023-07-20T03:04:43;14.30;1.00
1461;DHT22;724;49.910;12.530;2023-07-20T03:07:10;14.30;1.00
1461;DHT22;724;49.910;12.530;2023-07-20T03:09:37;14.30;1.00
1461;DHT22;724;49.910;12.530;2023-07-20T03:12:04;14.40;1.00
1461;DHT22;724;49.910;12.530;2023-07-20T03:14:32;14.30;1.00
1461;DHT22;724;49.910;12.530;2023-07-20T03:16:59;14.20;1.00
1461;DHT22;724;49.910;12.530;2023-07-20T03:19:26;14.20;1.00
1461;DHT22;724;49.910;12.530;2023-07-20T03:21:53;14.20;1.00
1461;DHT22;724;49.910;12.530;2023-07-20T03:24:20;14.10;1.00
1461;DHT22;724;49.910;12.530;2023-07-20T03:26:49;14.10;1.00
1461;DHT22;724;49.910;12.530;2023-07-20T03:29:15;14.10;1.00
1461;DHT22;724;49.910;12.530;2023-07-20T03:31:43;14.00;1.00
1461;DHT22;724;49.910;12.530;2023-07-20T03:34:11;14.10;1.00
1461;DHT22;724;49.910;12.530;2023-07-20T03:36:38;14.10;1.00
1461;DHT22;724;49.910;12.530;2023-07-20T03:39:04;14.10;1.00
1461;DHT22;724;49.910;12.530;2023-07-20T03:41:31;14.00;1.00
1461;DHT22;724;49.910;12.530;2023-07-20T03:43:58;14.10;1.00
1461;DHT22;724;49.910;12.530;2023-07-20T03:46:25;14.10;1.00
1461;DHT22;724;49.910;12.530;2023-07-20T03:48:54;14.00;1.00
1461;DHT22;724;49.910;12.530;2023-07-20T03:51:21;14.10;1.00
1461;DHT22;724;49.910;12.530;2023-07-20T03:53:47;14.10;1.00
1461;DHT22;724;49.910;12.530;2023-07-20T03:56:14;14.00;1.00
1461;DHT22;724;49.910;12.530;2023-07-20T03:58:41;13.90;1.00
1461;DHT22;724;49.910;12.530;2023-07-20T04:01:08;14.00;1.00
1461;DHT22;724;49.910;12.530;2023-07-20T04:03:35;14.10;1.00
1461;DHT22;724;49.910;12.530;2023-07-20T04:06:04;14.10;1.00
1461;DHT22;724;49.910;12.530;2023-07-20T04:08:31;14.10;1.00
1461;DHT22;724;49.910;12.530;2023-07-20T04:10:57;14.20;1.00
1461;DHT22;724;49.910;12.530;2023-07-20T04:13:24;14.20;1.00
1461;DHT22;724;49.910;12.530;2023-07-20T04:15:51;14.30;1.00
1461;DHT22;724;49.910;12.530;2023-07-20T04:18:18;14.40;1.00
1461;DHT22;724;49.910;12.530;2023-07-20T04:20:45;14.40;1.00
1461;DHT22;724;49.910;12.530;2023-07-20T04:23:13;14.40;1.00
1461;DHT22;724;49.910;12.530;2023-07-20T04:25:40;14.50;1.00
1461;DHT22;724;49.910;12.530;2023-07-20T04:28:07;14.60;1.00
1461;DHT22;724;49.910;12.530;2023-07-20T04:30:38;14.70;1.00
1461;DHT22;724;49.910;12.530;2023-07-20T04:33:05;14.80;1.00
1461;DHT22;724;49.910;12.530;2023-07-20T04:35:47;14.70;99.90
1461;DHT22;724;49.910;12.530;2023-07-20T04:38:16;14.90;99.90
1461;DHT22;724;49.910;12.530;2023-07-20T04:40:44;14.90;99.90
1461;DHT22;724;49.910;12.530;2023-07-20T04:43:11;15.00;99.90
1461;DHT22;724;49.910;12.530;2023-07-20T04:45:38;14.80;99.90
1461;DHT22;724;49.910;12.530;2023-07-20T04:48:08;14.80;99.90
1461;DHT22;724;49.910;12.530;2023-07-20T04:50:35;14.90;99.90
1461;DHT22;724;49.910;12.530;2023-07-20T04:53:02;14.90;99.90
1461;DHT22;724;49.910;12.530;2023-07-20T04:55:30;15.00;99.90
1461;DHT22;724;49.910;12.530;2023-07-20T04:57:59;15.20;99.90
1461;DHT22;724;49.910;12.530;2023-07-20T05:00:26;15.30;99.90
1461;DHT22;724;49.910;12.530;2023-07-20T05:02:53;15.40;99.90
1461;DHT22;724;49.910;12.530;2023-07-20T05:05:20;15.10;99.90
1461;DHT22;724;49.910;12.530;2023-07-20T05:07:47;15.10;99.90
1461;DHT22;724;49.910;12.530;2023-07-20T05:10:14;15.10;99.90
1461;DHT22;724;49.910;12.530;2023-07-20T05:12:42;15.00;99.90
1461;DHT22;724;49.910;12.530;2023-07-20T05:15:09;15.00;99.90
1461;DHT22;724;49.910;12.530;2023-07-20T05:17:36;15.30;99.90
1461;DHT22;724;49.910;12.530;2023-07-20T05:20:05;15.50;99.90
1461;DHT22;724;49.910;12.530;2023-07-20T05:22:34;15.50;99.90
1461;DHT22;724;49.910;12.530;2023-07-20T05:25:01;15.80;99.90
1461;DHT22;724;49.910;12.530;2023-07-20T05:27:28;15.60;93.50
1461;DHT22;724;49.910;12.530;2023-07-20T05:29:56;15.60;99.90
1461;DHT22;724;49.910;12.530;2023-07-20T05:32:23;15.60;97.70
1461;DHT22;724;49.910;12.530;2023-07-20T05:34:52;15.60;99.90
1461;DHT22;724;49.910;12.530;2023-07-20T05:37:19;16.00;96.20
1461;DHT22;724;49.910;12.530;2023-07-20T05:39:46;16.40;14.00
1461;DHT22;724;49.910;12.530;2023-07-20T05:42:13;16.70;1.00
1461;DHT22;724;49.910;12.530;2023-07-20T05:44:40;16.40;1.00
1461;DHT22;724;49.910;12.530;2023-07-20T05:47:08;16.10;1.00
1461;DHT22;724;49.910;12.530;2023-07-20T05:49:35;16.00;1.00
1461;DHT22;724;49.910;12.530;2023-07-20T05:52:02;15.90;72.50
1461;DHT22;724;49.910;12.530;2023-07-20T05:54:29;16.20;38.30
1461;DHT22;724;49.910;12.530;2023-07-20T05:56:56;16.30;1.00
1461;DHT22;724;49.910;12.530;2023-07-20T05:59:23;16.90;1.00
1461;DHT22;724;49.910;12.530;2023-07-20T06:01:50;17.00;1.00
1461;DHT22;724;49.910;12.530;2023-07-20T06:04:18;17.40;1.00
1461;DHT22;724;49.910;12.530;2023-07-20T06:06:45;17.60;1.00
1461;DHT22;724;49.910;12.530;2023-07-20T06:09:13;17.00;1.00
1461;DHT22;724;49.910;12.530;2023-07-20T06:11:40;17.50;1.00
1461;DHT22;724;49.910;12.530;2023-07-20T06:14:07;17.70;1.00
1461;DHT22;724;49.910;12.530;2023-07-20T06:16:33;17.90;1.00
1461;DHT22;724;49.910;12.530;2023-07-20T06:19:00;18.00;1.00
1461;DHT22;724;49.910;12.530;2023-07-20T06:21:28;18.00;1.00
1461;DHT22;724;49.910;12.530;2023-07-20T06:23:55;18.30;1.00
1461;DHT22;724;49.910;12.530;2023-07-20T06:26:22;18.80;1.00
1461;DHT22;724;49.910;12.530;2023-07-20T06:28:49;18.30;1.00
1461;DHT22;724;49.910;12.530;2023-07-20T06:31:16;18.30;1.00
1461;DHT22;724;49.910;12.530;2023-07-20T06:33:43;18.50;1.00
1461;DHT22;724;49.910;12.530;2023-07-20T06:36:10;18.20;1.00
1461;DHT22;724;49.910;12.530;2023-07-20T06:38:38;18.60;1.00
1461;DHT22;724;49.910;12.530;2023-07-20T06:41:05;18.30;1.00
1461;DHT22;724;49.910;12.530;2023-07-20T06:43:32;18.80;1.00
1461;DHT22;724;49.910;12.530;2023-07-20T06:45:59;18.30;1.00
1461;DHT22;724;49.910;12.530;2023-07-20T06:48:25;17.80;1.00
1461;DHT22;724;49.910;12.530;2023-07-20T06:50:52;18.00;1.00
1461;DHT22;724;49.910;12.530;2023-07-20T06:53:19;18.40;1.00
1461;DHT22;724;49.910;12.530;2023-07-20T06:55:47;18.20;1.00
1461;DHT22;724;49.910;12.530;2023-07-20T06:58:14;18.70;1.00
1461;DHT22;724;49.910;12.530;2023-07-20T07:00:41;19.50;99.90
1461;DHT22;724;49.910;12.530;2023-07-20T07:03:08;19.80;99.90
1461;DHT22;724;49.910;12.530;2023-07-20T07:05:38;20.70;99.90
1461;DHT22;724;49.910;12.530;2023-07-20T07:08:05;21.50;99.90
1461;DHT22;724;49.910;12.530;2023-07-20T07:10:32;20.40;99.90
1461;DHT22;724;49.910;12.530;2023-07-20T07:13:00;20.00;99.90
1461;DHT22;724;49.910;12.530;2023-07-20T07:15:27;19.20;99.90
1461;DHT22;724;49.910;12.530;2023-07-20T07:17:54;19.70;99.90
1461;DHT22;724;49.910;12.530;2023-07-20T07:20:21;20.30;99.90
1461;DHT22;724;49.910;12.530;2023-07-20T07:22:50;20.10;99.90
1461;DHT22;724;49.910;12.530;2023-07-20T07:25:18;19.80;99.90
1461;DHT22;724;49.910;12.530;2023-07-20T07:27:44;19.20;99.90
1461;DHT22;724;49.910;12.530;2023-07-20T07:30:13;20.20;99.90
1461;DHT22;724;49.910;12.530;2023-07-20T07:32:41;21.10;99.90
1461;DHT22;724;49.910;12.530;2023-07-20T07:35:08;20.00;99.90
1461;DHT22;724;49.910;12.530;2023-07-20T07:37:35;20.50;99.90
1461;DHT22;724;49.910;12.530;2023-07-20T07:40:03;21.00;99.90
1461;DHT22;724;49.910;12.530;2023-07-20T07:42:31;21.00;99.90
1461;DHT22;724;49.910;12.530;2023-07-20T07:44:58;22.60;99.90
1461;DHT22;724;49.910;12.530;2023-07-20T07:47:26;21.60;99.90
1461;DHT22;724;49.910;12.530;2023-07-20T07:49:53;21.40;99.90
1461;DHT22;724;49.910;12.530;2023-07-20T07:52:20;22.60;99.90
1461;DHT22;724;49.910;12.530;2023-07-20T07:54:47;22.20;99.90
1461;DHT22;724;49.910;12.530;2023-07-20T07:57:13;21.40;90.00
1461;DHT22;724;49.910;12.530;2023-07-20T07:59:40;22.10;94.00
1461;DHT22;724;49.910;12.530;2023-07-20T08:02:07;22.40;78.50
1461;DHT22;724;49.910;12.530;2023-07-20T08:04:35;22.30;60.00
1461;DHT22;724;49.910;12.530;2023-07-20T08:07:04;21.70;46.00
1461;DHT22;724;49.910;12.530;2023-07-20T08:09:31;22.10;51.40
1461;DHT22;724;49.910;12.530;2023-07-20T08:11:58;23.00;47.90
1461;DHT22;724;49.910;12.530;2023-07-20T08:14:25;22.50;20.40
1461;DHT22;724;49.910;12.530;2023-07-20T08:16:51;22.00;5.50
1461;DHT22;724;49.910;12.530;2023-07-20T08:19:19;21.60;1.00
1461;DHT22;724;49.910;12.530;2023-07-20T08:21:48;21.70;1.00
1461;DHT22;724;49.910;12.530;2023-07-20T08:24:14;22.40;1.00
1461;DHT22;724;49.910;12.530;2023-07-20T08:26:41;21.40;1.00
1461;DHT22;724;49.910;12.530;2023-07-20T08:29:08;20.80;1.00
1461;DHT22;724;49.910;12.530;2023-07-20T08:31:35;20.20;1.00
1461;DHT22;724;49.910;12.530;2023-07-20T08:34:02;19.80;1.00
1461;DHT22;724;49.910;12.530;2023-07-20T08:36:28;19.60;1.00
1461;DHT22;724;49.910;12.530;2023-07-20T08:38:58;19.40;1.00
1461;DHT22;724;49.910;12.530;2023-07-20T08:41:25;19.80;1.00
1461;DHT22;724;49.910;12.530;2023-07-20T08:43:54;21.00;1.00
1461;DHT22;724;49.910;12.530;2023-07-20T08:46:23;20.00;1.00
1461;DHT22;724;49.910;12.530;2023-07-20T08:48:52;19.50;1.00
1461;DHT22;724;49.910;12.530;2023-07-20T08:51:20;19.60;1.00
1461;DHT22;724;49.910;12.530;2023-07-20T08:53:47;19.30;1.00
1461;DHT22;724;49.910;12.530;2023-07-20T08:56:17;19.10;1.00
1461;DHT22;724;49.910;12.530;2023-07-20T08:58:44;19.50;1.00
1461;DHT22;724;49.910;12.530;2023-07-20T09:01:14;20.60;1.00
1461;DHT22;724;49.910;12.530;2023-07-20T09:03:41;21.70;1.00
1461;DHT22;724;49.910;12.530;2023-07-20T09:06:08;21.50;1.00
1461;DHT22;724;49.910;12.530;2023-07-20T09:08:38;21.60;1.00
1461;DHT22;724;49.910;12.530;2023-07-20T09:11:05;21.30;1.00
1461;DHT22;724;49.910;12.530;2023-07-20T09:13:33;22.50;1.00
1461;DHT22;724;49.910;12.530;2023-07-20T09:16:00;22.60;1.00
1461;DHT22;724;49.910;12.530;2023-07-20T09:18:30;22.90;1.00
1461;DHT22;724;49.910;12.530;2023-07-20T09:21:02;21.40;1.00
1461;DHT22;724;49.910;12.530;2023-07-20T09:23:33;21.70;1.00
1461;DHT22;724;49.910;12.530;2023-07-20T09:26:00;22.20;1.00
1461;DHT22;724;49.910;12.530;2023-07-20T09:28:27;21.70;1.00
1461;DHT22;724;49.910;12.530;2023-07-20T09:30:56;21.10;1.00
1461;DHT22;724;49.910;12.530;2023-07-20T09:33:24;20.80;1.00
1461;DHT22;724;49.910;12.530;2023-07-20T09:35:51;20.50;1.00
1461;DHT22;724;49.910;12.530;2023-07-20T09:38:18;20.80;1.00
1461;DHT22;724;49.910;12.530;2023-07-20T09:40:45;21.80;1.00
1461;DHT22;724;49.910;12.530;2023-07-20T09:43:12;21.70;1.00
1461;DHT22;724;49.910;12.530;2023-07-20T09:45:43;22.30;1.00
1461;DHT22;724;49.910;12.530;2023-07-20T09:48:11;21.70;1.00
1461;DHT22;724;49.910;12.530;2023-07-20T09:50:42;21.70;1.00
1461;DHT22;724;49.910;12.530;2023-07-20T09:53:11;22.20;1.00
1461;DHT22;724;49.910;12.530;2023-07-20T09:55:40;21.80;1.00
1461;DHT22;724;49.910;12.530;2023-07-20T09:58:09;21.20;1.00
1461;DHT22;724;49.910;12.530;2023-07-20T10:00:37;22.30;1.00
1461;DHT22;724;49.910;12.530;2023-07-20T10:03:04;22.20;1.00
1461;DHT22;724;49.910;12.530;2023-07-20T10:05:35;23.00;1.00
1461;DHT22;724;49.910;12.530;2023-07-20T10:08:03;23.20;1.00
1461;DHT22;724;49.910;12.530;2023-07-20T10:10:33;22.60;1.00
1461;DHT22;724;49.910;12.530;2023-07-20T10:13:01;22.80;1.00
1461;DHT22;724;49.910;12.530;2023-07-20T10:15:30;22.50;1.00
1461;DHT22;724;49.910;12.530;2023-07-20T10:18:04;21.70;1.00
1461;DHT22;724;49.910;12.530;2023-07-20T10:20:36;21.10;1.00
1461;DHT22;724;49.910;12.530;2023-07-20T10:23:04;21.10;1.00
1461;DHT22;724;49.910;12.530;2023-07-20T10:25:31;21.30;1.00
1461;DHT22;724;49.910;12.530;2023-07-20T10:27:59;22.30;1.00
1461;DHT22;724;49.910;12.530;2023-07-20T10:30:27;22.90;1.00
1461;DHT22;724;49.910;12.530;2023-07-20T10:32:54;21.60;1.00
1461;DHT22;724;49.910;12.530;2023-07-20T10:35:21;21.30;1.00
1461;DHT22;724;49.910;12.530;2023-07-20T10:37:51;21.30;1.00
1461;DHT22;724;49.910;12.530;2023-07-20T10:40:28;21.30;1.00
1461;DHT22;724;49.910;12.530;2023-07-20T10:43:00;21.00;1.00
1461;DHT22;724;49.910;12.530;2023-07-20T10:45:41;21.50;1.00
1461;DHT22;724;49.910;12.530;2023-07-20T10:48:15;21.20;1.00
1461;DHT22;724;49.910;12.530;2023-07-20T10:50:43;21.10;1.00
1461;DHT22;724;49.910;12.530;2023-07-20T10:53:17;20.70;1.00
1461;DHT22;724;49.910;12.530;2023-07-20T10:55:44;22.00;1.00
1461;DHT22;724;49.910;12.530;2023-07-20T10:58:16;22.70;1.00
1461;DHT22;724;49.910;12.530;2023-07-20T11:00:59;21.90;1.00
1461;DHT22;724;49.910;12.530;2023-07-20T11:03:27;21.10;1.00
1461;DHT22;724;49.910;12.530;2023-07-20T11:05:56;20.60;1.00
1461;DHT22;724;49.910;12.530;2023-07-20T11:08:39;20.90;1.00
1461;DHT22;724;49.910;12.530;2023-07-20T11:11:24;21.00;1.00
1461;DHT22;724;49.910;12.530;2023-07-20T11:13:56;20.50;1.00
1461;DHT22;724;49.910;12.530;2023-07-20T11:16:40;20.40;1.00
1461;DHT22;724;49.910;12.530;2023-07-20T11:19:14;20.60;1.00
1461;DHT22;724;49.910;12.530;2023-07-20T11:21:43;20.10;1.00
1461;DHT22;724;49.910;12.530;2023-07-20T11:24:11;20.40;1.00
1461;DHT22;724;49.910;12.530;2023-07-20T11:26:45;20.40;1.00
1461;DHT22;724;49.910;12.530;2023-07-20T11:29:13;20.00;1.00
1461;DHT22;724;49.910;12.530;2023-07-20T11:31:41;20.00;1.00
1461;DHT22;724;49.910;12.530;2023-07-20T11:34:10;20.30;1.00
1461;DHT22;724;49.910;12.530;2023-07-20T11:36:38;21.10;1.00
1461;DHT22;724;49.910;12.530;2023-07-20T11:39:07;21.80;1.00
1461;DHT22;724;49.910;12.530;2023-07-20T11:41:36;22.00;1.00
1461;DHT22;724;49.910;12.530;2023-07-20T11:44:04;22.30;1.00
1461;DHT22;724;49.910;12.530;2023-07-20T11:46:32;22.80;1.00
1461;DHT22;724;49.910;12.530;2023-07-20T11:48:59;23.00;1.00
1461;DHT22;724;49.910;12.530;2023-07-20T11:51:29;23.20;1.00
1461;DHT22;724;49.910;12.530;2023-07-20T11:53:56;22.80;1.00
1461;DHT22;724;49.910;12.530;2023-07-20T11:56:25;22.10;1.00
1461;DHT22;724;49.910;12.530;2023-07-20T11:58:57;22.00;1.00
1461;DHT22;724;49.910;12.530;2023-07-20T12:01:25;21.80;1.00
1461;DHT22;724;49.910;12.530;2023-07-20T12:03:55;21.10;1.00
1461;DHT22;724;49.910;12.530;2023-07-20T12:06:23;20.90;1.00
1461;DHT22;724;49.910;12.530;2023-07-20T12:08:50;21.00;1.00
1461;DHT22;724;49.910;12.530;2023-07-20T12:11:31;21.10;1.00
1461;DHT22;724;49.910;12.530;2023-07-20T12:13:59;21.00;1.00
1461;DHT22;724;49.910;12.530;2023-07-20T12:16:27;21.40;1.00
1461;DHT22;724;49.910;12.530;2023-07-20T12:18:59;21.60;1.00
1461;DHT22;724;49.910;12.530;2023-07-20T12:21:26;21.40;1.00
1461;DHT22;724;49.910;12.530;2023-07-20T12:23:54;21.70;1.00
1461;DHT22;724;49.910;12.530;2023-07-20T12:26:22;21.90;1.00
1461;DHT22;724;49.910;12.530;2023-07-20T12:28:49;21.80;1.00
1461;DHT22;724;49.910;12.530;2023-07-20T12:31:17;22.20;1.00
1461;DHT22;724;49.910;12.530;2023-07-20T12:33:45;22.40;1.00
1461;DHT22;724;49.910;12.530;2023-07-20T12:36:11;22.10;1.00
1461;DHT22;724;49.910;12.530;2023-07-20T12:38:38;22.10;1.00
1461;DHT22;724;49.910;12.530;2023-07-20T12:41:07;22.00;1.00
1461;DHT22;724;49.910;12.530;2023-07-20T12:43:34;22.00;1.00
1461;DHT22;724;49.910;12.530;2023-07-20T12:46:00;21.50;1.00
1461;DHT22;724;49.910;12.530;2023-07-20T12:48:29;21.20;1.00
1461;DHT22;724;49.910;12.530;2023-07-20T12:50:55;20.90;1.00
1461;DHT22;724;49.910;12.530;2023-07-20T12:53:22;21.00;1.00
1461;DHT22;724;49.910;12.530;2023-07-20T12:55:49;21.20;1.00
1461;DHT22;724;49.910;12.530;2023-07-20T12:58:16;21.20;1.00
1461;DHT22;724;49.910;12.530;2023-07-20T13:00:43;22.10;1.00
1461;DHT22;724;49.910;12.530;2023-07-20T13:03:10;22.10;1.00
1461;DHT22;724;49.910;12.530;2023-07-20T13:05:39;21.40;1.00
1461;DHT22;724;49.910;12.530;2023-07-20T13:08:05;21.30;1.00
1461;DHT22;724;49.910;12.530;2023-07-20T13:10:32;21.20;1.00
1461;DHT22;724;49.910;12.530;2023-07-20T13:12:59;21.10;1.00
1461;DHT22;724;49.910;12.530;2023-07-20T13:15:30;21.30;1.00
1461;DHT22;724;49.910;12.530;2023-07-20T13:17:57;21.70;1.00
1461;DHT22;724;49.910;12.530;2023-07-20T13:20:25;21.60;1.00
1461;DHT22;724;49.910;12.530;2023-07-20T13:22:54;21.80;1.00
1461;DHT22;724;49.910;12.530;2023-07-20T13:25:20;21.60;1.00
1461;DHT22;724;49.910;12.530;2023-07-20T13:27:47;21.50;1.00
1461;DHT22;724;49.910;12.530;2023-07-20T13:30:14;21.60;1.00
1461;DHT22;724;49.910;12.530;2023-07-20T13:32:42;22.10;1.00
1461;DHT22;724;49.910;12.530;2023-07-20T13:35:10;22.60;1.00
1461;DHT22;724;49.910;12.530;2023-07-20T13:37:36;22.70;1.00
1461;DHT22;724;49.910;12.530;2023-07-20T13:40:06;22.80;1.00
1461;DHT22;724;49.910;12.530;2023-07-20T13:42:34;22.60;1.00
1461;DHT22;724;49.910;12.530;2023-07-20T13:45:01;22.80;1.00
1461;DHT22;724;49.910;12.530;2023-07-20T13:47:28;23.00;1.00
1461;DHT22;724;49.910;12.530;2023-07-20T13:49:55;23.20;1.00
1461;DHT22;724;49.910;12.530;2023-07-20T13:52:22;22.60;1.00
1461;DHT22;724;49.910;12.530;2023-07-20T13:54:49;22.50;1.00
1461;DHT22;724;49.910;12.530;2023-07-20T13:57:17;22.10;1.00
1461;DHT22;724;49.910;12.530;2023-07-20T13:59:44;21.60;1.00
1461;DHT22;724;49.910;12.530;2023-07-20T14:02:11;21.60;1.00
1461;DHT22;724;49.910;12.530;2023-07-20T14:04:38;21.60;1.00
1461;DHT22;724;49.910;12.530;2023-07-20T14:07:05;21.50;1.00
1461;DHT22;724;49.910;12.530;2023-07-20T14:09:32;21.30;1.00
1461;DHT22;724;49.910;12.530;2023-07-20T14:11:59;21.40;1.00
1461;DHT22;724;49.910;12.530;2023-07-20T14:14:27;21.70;1.00
1461;DHT22;724;49.910;12.530;2023-07-20T14:16:54;21.60;1.00
1461;DHT22;724;49.910;12.530;2023-07-20T14:19:21;21.50;1.00
1461;DHT22;724;49.910;12.530;2023-07-20T14:21:48;21.40;1.00
1461;DHT22;724;49.910;12.530;2023-07-20T14:24:15;21.30;1.00
1461;DHT22;724;49.910;12.530;2023-07-20T14:26:42;21.40;1.00
1461;DHT22;724;49.910;12.530;2023-07-20T14:29:09;21.40;1.00
1461;DHT22;724;49.910;12.530;2023-07-20T14:31:37;21.50;1.00
1461;DHT22;724;49.910;12.530;2023-07-20T14:34:04;21.20;1.00
1461;DHT22;724;49.910;12.530;2023-07-20T14:36:31;21.10;1.00
1461;DHT22;724;49.910;12.530;2023-07-20T14:38:59;21.90;1.00
1461;DHT22;724;49.910;12.530;2023-07-20T14:41:28;21.90;1.00
1461;DHT22;724;49.910;12.530;2023-07-20T14:43:56;22.20;1.00
1461;DHT22;724;49.910;12.530;2023-07-20T14:46:23;21.70;1.00
1461;DHT22;724;49.910;12.530;2023-07-20T14:48:52;22.40;1.00
1461;DHT22;724;49.910;12.530;2023-07-20T14:51:19;21.90;1.00
1461;DHT22;724;49.910;12.530;2023-07-20T14:53:46;22.10;1.00
1461;DHT22;724;49.910;12.530;2023-07-20T14:56:14;22.50;1.00
1461;DHT22;724;49.910;12.530;2023-07-20T14:58:41;22.30;1.00
1461;DHT22;724;49.910;12.530;2023-07-20T15:01:07;21.70;1.00
1461;DHT22;724;49.910;12.530;2023-07-20T15:03:34;21.20;1.00
1461;DHT22;724;49.910;12.530;2023-07-20T15:06:02;21.10;1.00
1461;DHT22;724;49.910;12.530;2023-07-20T15:08:30;21.40;1.00
1461;DHT22;724;49.910;12.530;2023-07-20T15:10:57;22.10;1.00
1461;DHT22;724;49.910;12.530;2023-07-20T15:13:23;22.10;1.00
1461;DHT22;724;49.910;12.530;2023-07-20T15:15:51;22.00;1.00
1461;DHT22;724;49.910;12.530;2023-07-20T15:18:17;22.20;1.00
1461;DHT22;724;49.910;12.530;2023-07-20T15:20:44;22.20;1.00
1461;DHT22;724;49.910;12.530;2023-07-20T15:23:14;21.50;1.00
1461;DHT22;724;49.910;12.530;2023-07-20T15:25:41;21.20;1.00
1461;DHT22;724;49.910;12.530;2023-07-20T15:28:08;20.80;1.00
1461;DHT22;724;49.910;12.530;2023-07-20T15:30:34;20.70;1.00
1461;DHT22;724;49.910;12.530;2023-07-20T15:33:01;20.90;1.00
1461;DHT22;724;49.910;12.530;2023-07-20T15:35:28;21.20;1.00
1461;DHT22;724;49.910;12.530;2023-07-20T15:37:55;21.10;1.00
1461;DHT22;724;49.910;12.530;2023-07-20T15:40:23;21.10;1.00
1461;DHT22;724;49.910;12.530;2023-07-20T15:42:50;20.90;1.00
1461;DHT22;724;49.910;12.530;2023-07-20T15:45:16;20.80;1.00
1461;DHT22;724;49.910;12.530;2023-07-20T15:47:43;20.70;1.00
1461;DHT22;724;49.910;12.530;2023-07-20T15:50:11;20.30;1.00
1461;DHT22;724;49.910;12.530;2023-07-20T15:52:38;20.10;1.00
1461;DHT22;724;49.910;12.530;2023-07-20T15:55:08;20.30;1.00
1461;DHT22;724;49.910;12.530;2023-07-20T15:57:36;20.00;1.00
1461;DHT22;724;49.910;12.530;2023-07-20T16:00:04;20.30;1.00
1461;DHT22;724;49.910;12.530;2023-07-20T16:02:34;20.20;1.00
1461;DHT22;724;49.910;12.530;2023-07-20T16:05:02;20.20;1.00
1461;DHT22;724;49.910;12.530;2023-07-20T16:07:28;20.50;1.00
1461;DHT22;724;49.910;12.530;2023-07-20T16:09:56;21.00;1.00
1461;DHT22;724;49.910;12.530;2023-07-20T16:12:26;21.30;1.00
1461;DHT22;724;49.910;12.530;2023-07-20T16:14:55;21.50;1.00
1461;DHT22;724;49.910;12.530;2023-07-20T16:17:22;22.00;1.00
1461;DHT22;724;49.910;12.530;2023-07-20T16:19:49;21.70;1.00